Oasis of the Seas — C6XS7 — position and weather

sailwx.info

Track history (hours):
 
Tides and Currents Weather Stations Pressure Air Temp Water Temp Dewpoint Dewpoint Depression Visibility Wind Speed Wind Dir Waves Ship Positions

Oasis of the Seas

Last reported at 2014-Oct-16 09:10 UTC. Time now 2014-Oct-25 03:26 UTC.
Position N 49°50' W 003°16'.
Warning: this ship's position is 8 days out of date.

Length 360 m; draft 9.3 m.

Type: Passenger vessel. MMSI: 311020600.

Date/timePositionNaut miles runAvg speedWind from/ knotsBaromVisibWave heightAir tempDewpointWater temp
2014-Oct-16 09:10N 49°50' W 003°16'813.2
2014-Oct-16 08:34N 49°54' W 003°05'8414.1
2014-Oct-16 02:33N 50°32' W 001°06'1210.3
2014-Oct-16 01:24N 50°42' W 000°59'1314.4
2014-Oct-16 00:29N 50°48' W 001°18'8 8.1
2014-Oct-15 23:28N 50°54' W 001°26'1 0.9
2014-Oct-15 22:31N 50°54' W 001°25'0 0.0
2014-Oct-15 21:32N 50°54' W 001°25'0 0.0
2014-Oct-15 20:32N 50°54' W 001°25'0 0.0
2014-Oct-15 19:29N 50°54' W 001°25'0 0.0
2014-Oct-15 18:32N 50°54' W 001°25'0 0.0
2014-Oct-15 17:32N 50°54' W 001°25'0 0.0
2014-Oct-15 16:32N 50°54' W 001°25'0 0.0
2014-Oct-15 15:29N 50°54' W 001°25'0 0.0
2014-Oct-15 14:29N 50°54' W 001°25'0 0.0
2014-Oct-15 13:32N 50°54' W 001°25'0 0.0
2014-Oct-15 12:32N 50°54' W 001°25'0 0.0
2014-Oct-15 11:32N 50°54' W 001°25'0 0.0
2014-Oct-15 10:32N 50°54' W 001°25'0 0.0
2014-Oct-15 09:32N 50°54' W 001°25'2 1.8
2014-Oct-15 08:34N 50°53' W 001°23'8 7.8
2014-Oct-15 07:33N 50°46' W 001°16'1514.7
2014-Oct-15 06:33N 50°39' W 000°56'4615.2
2014-Oct-15 03:33N 50°33' E 000°16'1919.1
2014-Oct-15 02:33N 50°41' E 000°43'2617.8
2014-Oct-15 01:04N 50°58' E 001°15'917.8
2014-Oct-15 00:34N 51°04' E 001°26'2221.6
2014-Oct-14 23:34N 51°19' E 001°50'2222.4
2014-Oct-14 22:33N 51°38' E 002°10'6419.5
2014-Oct-14 19:18N 52°03' E 003°44'6 8.7
2014-Oct-14 18:33N 52°03' E 003°55'9 9.2
2014-Oct-14 17:33N 51°58' E 004°07'9 9.0
2014-Oct-14 16:33N 51°54' E 004°20'5 5.3
2014-Oct-14 15:33N 51°54' E 004°28'1 0.6
2014-Oct-14 14:32N 51°54' E 004°29'0 0.0
2014-Oct-14 13:32N 51°54' E 004°29'0 0.0
2014-Oct-14 12:32N 51°54' E 004°29'0 0.0
2014-Oct-14 11:32N 51°54' E 004°29'0 0.0
2014-Oct-14 10:32N 51°54' E 004°29'0 0.0
2014-Oct-14 09:32N 51°54' E 004°29'0 0.0
2014-Oct-14 08:32N 51°54' E 004°29'0 0.0
2014-Oct-14 07:32N 51°54' E 004°29'0 0.0
2014-Oct-14 06:32N 51°54' E 004°29'0 0.0
2014-Oct-14 05:32N 51°54' E 004°29'3 3.6
2014-Oct-14 04:33N 51°54' E 004°24'4 3.9
2014-Oct-14 03:33N 51°53' E 004°17'0 0.0
2014-Oct-14 02:30N 51°53' E 004°17'0 0.0
2014-Oct-14 01:33N 51°53' E 004°17'0 0.0
2014-Oct-14 00:33N 51°53' E 004°17'0 0.0
2014-Oct-13 23:33N 51°53' E 004°17'0 0.0
2014-Oct-13 22:33N 51°53' E 004°17'0 0.0
2014-Oct-13 21:33N 51°53' E 004°17'0 0.0
2014-Oct-13 20:33N 51°53' E 004°17'0 0.0
2014-Oct-13 19:33N 51°53' E 004°17'0 0.0
2014-Oct-13 18:33N 51°53' E 004°17'0 0.0
2014-Oct-13 17:33N 51°53' E 004°17'0 0.3
2014-Oct-13 16:33N 51°54' E 004°17'0 0.0
2014-Oct-13 15:33N 51°54' E 004°17'0 0.0
2014-Oct-13 14:30N 51°54' E 004°17'0 0.0
2014-Oct-13 13:30N 51°54' E 004°17'0 0.0
2014-Oct-13 12:30N 51°54' E 004°17'0 0.0
2014-Oct-13 11:30N 51°54' E 004°17'0 0.0
2014-Oct-13 10:33N 51°54' E 004°17'0 0.0
2014-Oct-13 09:33N 51°54' E 004°17'0 0.0
2014-Oct-13 08:33N 51°54' E 004°17'0 0.0
2014-Oct-13 07:33N 51°54' E 004°17'0 0.0
2014-Oct-13 06:33N 51°54' E 004°17'0 0.0
2014-Oct-13 05:30N 51°54' E 004°17'0 0.0
2014-Oct-13 04:33N 51°54' E 004°17'0 0.0
2014-Oct-13 03:27N 51°54' E 004°17'0 0.0
2014-Oct-13 02:33N 51°54' E 004°17'0 0.0
2014-Oct-13 01:30N 51°54' E 004°17'0 0.0
2014-Oct-13 00:30N 51°54' E 004°17'0 0.0
2014-Oct-12 23:30N 51°54' E 004°17'0 0.0
2014-Oct-12 22:33N 51°54' E 004°17'0 0.0
2014-Oct-12 21:33N 51°54' E 004°17'0 0.0
2014-Oct-12 20:33N 51°54' E 004°17'0 0.0
2014-Oct-12 19:33N 51°54' E 004°17'0 0.0
2014-Oct-12 18:33N 51°54' E 004°17'0 0.0
2014-Oct-12 17:33N 51°54' E 004°17'0 0.0
2014-Oct-12 16:33N 51°54' E 004°17'0 0.0
2014-Oct-12 15:33N 51°54' E 004°17'0 0.0
2014-Oct-12 14:33N 51°54' E 004°17'0 0.0
2014-Oct-12 13:33N 51°54' E 004°17'0 0.0
2014-Oct-12 12:33N 51°54' E 004°17'0 0.0
2014-Oct-12 11:33N 51°54' E 004°17'0 0.0
2014-Oct-12 10:33N 51°54' E 004°17'0 0.0
2014-Oct-12 09:33N 51°54' E 004°17'0 0.0
2014-Oct-12 08:33N 51°54' E 004°17'0 0.0
2014-Oct-12 07:33N 51°54' E 004°17'0 0.0
2014-Oct-12 06:33N 51°54' E 004°17'0 0.0
2014-Oct-12 05:33N 51°54' E 004°17'0 0.0
2014-Oct-12 04:33N 51°54' E 004°17'0 0.0
2014-Oct-12 03:33N 51°54' E 004°17'0 0.0
2014-Oct-12 02:33N 51°54' E 004°17'0 0.0
2014-Oct-12 01:33N 51°54' E 004°17'0 0.0
2014-Oct-12 00:30N 51°54' E 004°17'0 0.0
2014-Oct-11 23:33N 51°54' E 004°17'0 0.0
2014-Oct-11 22:30N 51°54' E 004°17'0 0.0
2014-Oct-11 21:30N 51°54' E 004°17'0 0.0
2014-Oct-11 20:30N 51°54' E 004°17'0 0.0
2014-Oct-11 19:33N 51°54' E 004°17'0 0.0
2014-Oct-11 18:33N 51°54' E 004°17'0 0.0
2014-Oct-11 17:28N 51°54' E 004°17'0 0.0
2014-Oct-11 16:31N 51°54' E 004°17'0 0.0
2014-Oct-11 15:31N 51°54' E 004°17'0 0.0
2014-Oct-11 14:31N 51°54' E 004°17'0 0.0
2014-Oct-11 13:31N 51°54' E 004°17'0 0.0
2014-Oct-11 12:31N 51°54' E 004°17'0 0.0
2014-Oct-11 11:31N 51°54' E 004°17'0 0.0
2014-Oct-11 10:31N 51°54' E 004°17'0 0.0
2014-Oct-11 09:31N 51°54' E 004°17'0 0.0
2014-Oct-11 08:31N 51°54' E 004°17'0 0.0
2014-Oct-11 07:31N 51°54' E 004°17'0 0.0
2014-Oct-11 06:31N 51°54' E 004°17'0 0.0
2014-Oct-11 05:31N 51°54' E 004°17'0 0.0
2014-Oct-11 04:31N 51°54' E 004°17'0 0.0
2014-Oct-11 03:31N 51°54' E 004°17'0 0.0
2014-Oct-11 02:31N 51°54' E 004°17'0 0.0
2014-Oct-11 01:31N 51°54' E 004°17'0 0.0
2014-Oct-11 00:31N 51°54' E 004°17'0 0.0
2014-Oct-10 23:22N 51°54' E 004°17'0 0.0
2014-Oct-10 22:31N 51°54' E 004°17'0 0.0
2014-Oct-10 21:31N 51°54' E 004°17'0 0.0
2014-Oct-10 20:31N 51°54' E 004°17'0 0.0
2014-Oct-10 19:31N 51°54' E 004°17'0 0.0
2014-Oct-10 18:31N 51°54' E 004°17'0 0.0
2014-Oct-10 17:31N 51°54' E 004°17'0 0.0
2014-Oct-10 16:31N 51°54' E 004°17'0 0.0
2014-Oct-10 15:28N 51°54' E 004°17'0 0.0
2014-Oct-10 14:31N 51°54' E 004°17'0 0.0
2014-Oct-10 13:31N 51°54' E 004°17'0 0.0
2014-Oct-10 12:31N 51°54' E 004°17'0 0.0
2014-Oct-10 11:31N 51°54' E 004°17'0 0.0
2014-Oct-10 10:31N 51°54' E 004°17'0 0.0
2014-Oct-10 09:31N 51°54' E 004°17'0 0.0
2014-Oct-10 08:31N 51°54' E 004°17'0 0.0
2014-Oct-10 07:31N 51°54' E 004°17'0 0.0
2014-Oct-10 06:31N 51°54' E 004°17'0 0.0
2014-Oct-10 05:31N 51°54' E 004°17'0 0.0
2014-Oct-10 04:31N 51°54' E 004°17'0 0.0
2014-Oct-10 03:31N 51°54' E 004°17'0 0.0
2014-Oct-10 02:31N 51°54' E 004°17'0 0.0
2014-Oct-10 01:31N 51°54' E 004°17'0 0.0
2014-Oct-10 00:32N 51°54' E 004°17'0 0.0
2014-Oct-09 23:32N 51°54' E 004°17'0 0.0
2014-Oct-09 22:32N 51°54' E 004°17'0 0.0
2014-Oct-09 21:32N 51°54' E 004°17'0 0.0
2014-Oct-09 20:32N 51°54' E 004°17'0 0.0
2014-Oct-09 19:32N 51°54' E 004°17'0 0.0
2014-Oct-09 18:32N 51°54' E 004°17'0 0.0
2014-Oct-09 17:32N 51°54' E 004°17'0 0.0
2014-Oct-09 16:32N 51°54' E 004°17'0 0.0
2014-Oct-09 15:33N 51°54' E 004°17'0 0.0
2014-Oct-09 14:32N 51°54' E 004°17'0 0.0
2014-Oct-09 13:32N 51°54' E 004°17'0 0.0
2014-Oct-09 12:32N 51°54' E 004°17'0 0.0
2014-Oct-09 11:32N 51°54' E 004°17'0 0.0
2014-Oct-09 10:32N 51°54' E 004°17'0 0.0
2014-Oct-09 09:31N 51°54' E 004°17'0 0.0
2014-Oct-09 08:31N 51°54' E 004°17'0 0.0
2014-Oct-09 07:31N 51°54' E 004°17'0 0.0
2014-Oct-09 06:31N 51°54' E 004°17'0 0.0
2014-Oct-09 05:31N 51°54' E 004°17'0 0.0
2014-Oct-09 04:31N 51°54' E 004°17'0 0.0
2014-Oct-09 03:28N 51°54' E 004°17'0 0.0
2014-Oct-09 02:31N 51°54' E 004°17'0 0.0
2014-Oct-09 01:28N 51°54' E 004°17'0 0.0
2014-Oct-09 00:31N 51°54' E 004°17'0 0.0
2014-Oct-08 23:31N 51°54' E 004°17'0 0.0
2014-Oct-08 22:31N 51°54' E 004°17'0 0.0
2014-Oct-08 21:28N 51°54' E 004°17'0 0.0
2014-Oct-08 20:31N 51°54' E 004°17'0 0.0
2014-Oct-08 19:31N 51°54' E 004°17'0 0.0
2014-Oct-08 18:31N 51°54' E 004°17'0 0.0
2014-Oct-08 17:28N 51°54' E 004°17'0 0.0
2014-Oct-08 16:31N 51°54' E 004°17'0 0.0
2014-Oct-08 15:31N 51°54' E 004°17'0 0.0
2014-Oct-08 14:31N 51°54' E 004°17'0 0.0
2014-Oct-08 13:31N 51°54' E 004°17'0 0.0
2014-Oct-08 12:31N 51°54' E 004°17'0 0.0
2014-Oct-08 11:31N 51°54' E 004°17'0 0.0
2014-Oct-08 10:31N 51°54' E 004°17'0 0.0
2014-Oct-08 09:31N 51°54' E 004°17'0 0.0
2014-Oct-08 08:28N 51°54' E 004°17'0 0.0
2014-Oct-08 07:31N 51°54' E 004°17'0 0.0
2014-Oct-08 06:30N 51°54' E 004°17'0 0.0
2014-Oct-08 05:33N 51°54' E 004°17'0 0.0
2014-Oct-08 04:33N 51°54' E 004°17'0 0.0
2014-Oct-08 03:33N 51°54' E 004°17'0 0.0
2014-Oct-08 02:33N 51°54' E 004°17'0 0.0
2014-Oct-08 01:33N 51°54' E 004°17'0 0.0
2014-Oct-08 00:34N 51°54' E 004°17'0 0.0
2014-Oct-07 23:32N 51°54' E 004°17'0 0.0
2014-Oct-07 22:32N 51°54' E 004°17'0 0.0
2014-Oct-07 21:32N 51°54' E 004°17'0 0.0
2014-Oct-07 20:32N 51°54' E 004°17'0 0.0
2014-Oct-07 19:32N 51°54' E 004°17'0 0.0
2014-Oct-07 18:32N 51°54' E 004°17'0 0.0
2014-Oct-07 17:32N 51°54' E 004°17'0 0.0
2014-Oct-07 16:29N 51°54' E 004°17'0 0.0
2014-Oct-07 15:32N 51°54' E 004°17'0 0.0
2014-Oct-07 14:32N 51°54' E 004°17'0 0.0
2014-Oct-07 13:32N 51°54' E 004°17'0 0.0
2014-Oct-07 12:32N 51°54' E 004°17'0 0.0
2014-Oct-07 11:32N 51°54' E 004°17'0 0.0
2014-Oct-07 10:32N 51°54' E 004°17'0 0.0
2014-Oct-07 09:32N 51°54' E 004°17'0 0.0
2014-Oct-07 08:29N 51°54' E 004°17'0 0.0
2014-Oct-07 07:32N 51°54' E 004°17'0 0.0
2014-Oct-07 06:32N 51°54' E 004°17'0 0.0
2014-Oct-07 05:32N 51°54' E 004°17'0 0.0
2014-Oct-07 04:32N 51°54' E 004°17'0 0.0
2014-Oct-07 03:32N 51°54' E 004°17'0 0.0
2014-Oct-07 02:32N 51°54' E 004°17'0 0.0
2014-Oct-07 01:32N 51°54' E 004°17'0 0.0
2014-Oct-07 00:29N 51°54' E 004°17'0 0.0
2014-Oct-06 23:32N 51°54' E 004°17'0 0.0
2014-Oct-06 22:32N 51°54' E 004°17'0 0.0
2014-Oct-06 21:32N 51°54' E 004°17'0 0.0
2014-Oct-06 20:32N 51°54' E 004°17'0 0.0
2014-Oct-06 19:32N 51°54' E 004°17'0 0.0
2014-Oct-06 16:32N 51°54' E 004°17'0 0.0
2014-Oct-06 15:32N 51°54' E 004°17'0 0.0
2014-Oct-06 14:32N 51°54' E 004°17'0 0.0
2014-Oct-06 13:32N 51°54' E 004°17'0 0.0
2014-Oct-06 12:26N 51°54' E 004°17'0 0.0
2014-Oct-06 11:32N 51°54' E 004°17'0 0.0
2014-Oct-06 10:32N 51°54' E 004°17'0 0.0
2014-Oct-06 09:31N 51°54' E 004°17'  
Track history (hours):
 
Tides and Currents Weather Stations Pressure Air Temp Water Temp Dewpoint Dewpoint Depression Visibility Wind Speed Wind Dir Waves Ship Positions

Oasis of the Seas

Last reported at 2014-Oct-16 09:10 UTC. Time now 2014-Oct-25 03:26 UTC.
Position N 49°50' W 003°16'.
Warning: this ship's position is 8 days out of date.

Length 360 m; draft 9.3 m.

Type: Passenger vessel. MMSI: 311020600.

Date/timePositionNaut miles runAvg speedWind from/ knotsBaromVisibWave heightAir tempDewpointWater temp
2014-Oct-16 09:10N 49°50' W 003°16'813.2
2014-Oct-16 08:34N 49°54' W 003°05'8414.1
2014-Oct-16 02:33N 50°32' W 001°06'1210.3
2014-Oct-16 01:24N 50°42' W 000°59'1314.4
2014-Oct-16 00:29N 50°48' W 001°18'8 8.1
2014-Oct-15 23:28N 50°54' W 001°26'1 0.9
2014-Oct-15 22:31N 50°54' W 001°25'0 0.0
2014-Oct-15 21:32N 50°54' W 001°25'0 0.0
2014-Oct-15 20:32N 50°54' W 001°25'0 0.0
2014-Oct-15 19:29N 50°54' W 001°25'0 0.0
2014-Oct-15 18:32N 50°54' W 001°25'0 0.0
2014-Oct-15 17:32N 50°54' W 001°25'0 0.0
2014-Oct-15 16:32N 50°54' W 001°25'0 0.0
2014-Oct-15 15:29N 50°54' W 001°25'0 0.0
2014-Oct-15 14:29N 50°54' W 001°25'0 0.0
2014-Oct-15 13:32N 50°54' W 001°25'0 0.0
2014-Oct-15 12:32N 50°54' W 001°25'0 0.0
2014-Oct-15 11:32N 50°54' W 001°25'0 0.0
2014-Oct-15 10:32N 50°54' W 001°25'0 0.0
2014-Oct-15 09:32N 50°54' W 001°25'2 1.8
2014-Oct-15 08:34N 50°53' W 001°23'8 7.8
2014-Oct-15 07:33N 50°46' W 001°16'1514.7
2014-Oct-15 06:33N 50°39' W 000°56'4615.2
2014-Oct-15 03:33N 50°33' E 000°16'1919.1
2014-Oct-15 02:33N 50°41' E 000°43'2617.8
2014-Oct-15 01:04N 50°58' E 001°15'917.8
2014-Oct-15 00:34N 51°04' E 001°26'2221.6
2014-Oct-14 23:34N 51°19' E 001°50'2222.4
2014-Oct-14 22:33N 51°38' E 002°10'6419.5
2014-Oct-14 19:18N 52°03' E 003°44'6 8.7
2014-Oct-14 18:33N 52°03' E 003°55'9 9.2
2014-Oct-14 17:33N 51°58' E 004°07'9 9.0
2014-Oct-14 16:33N 51°54' E 004°20'5 5.3
2014-Oct-14 15:33N 51°54' E 004°28'1 0.6
2014-Oct-14 14:32N 51°54' E 004°29'0 0.0
2014-Oct-14 13:32N 51°54' E 004°29'0 0.0
2014-Oct-14 12:32N 51°54' E 004°29'0 0.0
2014-Oct-14 11:32N 51°54' E 004°29'0 0.0
2014-Oct-14 10:32N 51°54' E 004°29'0 0.0
2014-Oct-14 09:32N 51°54' E 004°29'0 0.0
2014-Oct-14 08:32N 51°54' E 004°29'0 0.0
2014-Oct-14 07:32N 51°54' E 004°29'0 0.0
2014-Oct-14 06:32N 51°54' E 004°29'0 0.0
2014-Oct-14 05:32N 51°54' E 004°29'3 3.6
2014-Oct-14 04:33N 51°54' E 004°24'4 3.9
2014-Oct-14 03:33N 51°53' E 004°17'0 0.0
2014-Oct-14 02:30N 51°53' E 004°17'0 0.0
2014-Oct-14 01:33N 51°53' E 004°17'0 0.0
2014-Oct-14 00:33N 51°53' E 004°17'0 0.0
2014-Oct-13 23:33N 51°53' E 004°17'0 0.0
2014-Oct-13 22:33N 51°53' E 004°17'0 0.0
2014-Oct-13 21:33N 51°53' E 004°17'0 0.0
2014-Oct-13 20:33N 51°53' E 004°17'0 0.0
2014-Oct-13 19:33N 51°53' E 004°17'0 0.0
2014-Oct-13 18:33N 51°53' E 004°17'0 0.0
2014-Oct-13 17:33N 51°53' E 004°17'0 0.3
2014-Oct-13 16:33N 51°54' E 004°17'0 0.0
2014-Oct-13 15:33N 51°54' E 004°17'0 0.0
2014-Oct-13 14:30N 51°54' E 004°17'0 0.0
2014-Oct-13 13:30N 51°54' E 004°17'0 0.0
2014-Oct-13 12:30N 51°54' E 004°17'0 0.0
2014-Oct-13 11:30N 51°54' E 004°17'0 0.0
2014-Oct-13 10:33N 51°54' E 004°17'0 0.0
2014-Oct-13 09:33N 51°54' E 004°17'0 0.0
2014-Oct-13 08:33N 51°54' E 004°17'0 0.0
2014-Oct-13 07:33N 51°54' E 004°17'0 0.0
2014-Oct-13 06:33N 51°54' E 004°17'0 0.0
2014-Oct-13 05:30N 51°54' E 004°17'0 0.0
2014-Oct-13 04:33N 51°54' E 004°17'0 0.0
2014-Oct-13 03:27N 51°54' E 004°17'0 0.0
2014-Oct-13 02:33N 51°54' E 004°17'0 0.0
2014-Oct-13 01:30N 51°54' E 004°17'0 0.0
2014-Oct-13 00:30N 51°54' E 004°17'0 0.0
2014-Oct-12 23:30N 51°54' E 004°17'0 0.0
2014-Oct-12 22:33N 51°54' E 004°17'0 0.0
2014-Oct-12 21:33N 51°54' E 004°17'0 0.0
2014-Oct-12 20:33N 51°54' E 004°17'0 0.0
2014-Oct-12 19:33N 51°54' E 004°17'0 0.0
2014-Oct-12 18:33N 51°54' E 004°17'0 0.0
2014-Oct-12 17:33N 51°54' E 004°17'0 0.0
2014-Oct-12 16:33N 51°54' E 004°17'0 0.0
2014-Oct-12 15:33N 51°54' E 004°17'0 0.0
2014-Oct-12 14:33N 51°54' E 004°17'0 0.0
2014-Oct-12 13:33N 51°54' E 004°17'0 0.0
2014-Oct-12 12:33N 51°54' E 004°17'0 0.0
2014-Oct-12 11:33N 51°54' E 004°17'0 0.0
2014-Oct-12 10:33N 51°54' E 004°17'0 0.0
2014-Oct-12 09:33N 51°54' E 004°17'0 0.0
2014-Oct-12 08:33N 51°54' E 004°17'0 0.0
2014-Oct-12 07:33N 51°54' E 004°17'0 0.0
2014-Oct-12 06:33N 51°54' E 004°17'0 0.0
2014-Oct-12 05:33N 51°54' E 004°17'0 0.0
2014-Oct-12 04:33N 51°54' E 004°17'0 0.0
2014-Oct-12 03:33N 51°54' E 004°17'0 0.0
2014-Oct-12 02:33N 51°54' E 004°17'0 0.0
2014-Oct-12 01:33N 51°54' E 004°17'0 0.0
2014-Oct-12 00:30N 51°54' E 004°17'0 0.0
2014-Oct-11 23:33N 51°54' E 004°17'0 0.0
2014-Oct-11 22:30N 51°54' E 004°17'0 0.0
2014-Oct-11 21:30N 51°54' E 004°17'0 0.0
2014-Oct-11 20:30N 51°54' E 004°17'0 0.0
2014-Oct-11 19:33N 51°54' E 004°17'0 0.0
2014-Oct-11 18:33N 51°54' E 004°17'0 0.0
2014-Oct-11 17:28N 51°54' E 004°17'0 0.0
2014-Oct-11 16:31N 51°54' E 004°17'0 0.0
2014-Oct-11 15:31N 51°54' E 004°17'0 0.0
2014-Oct-11 14:31N 51°54' E 004°17'0 0.0
2014-Oct-11 13:31N 51°54' E 004°17'0 0.0
2014-Oct-11 12:31N 51°54' E 004°17'0 0.0
2014-Oct-11 11:31N 51°54' E 004°17'0 0.0
2014-Oct-11 10:31N 51°54' E 004°17'0 0.0
2014-Oct-11 09:31N 51°54' E 004°17'0 0.0
2014-Oct-11 08:31N 51°54' E 004°17'0 0.0
2014-Oct-11 07:31N 51°54' E 004°17'0 0.0
2014-Oct-11 06:31N 51°54' E 004°17'0 0.0
2014-Oct-11 05:31N 51°54' E 004°17'0 0.0
2014-Oct-11 04:31N 51°54' E 004°17'0 0.0
2014-Oct-11 03:31N 51°54' E 004°17'0 0.0
2014-Oct-11 02:31N 51°54' E 004°17'0 0.0
2014-Oct-11 01:31N 51°54' E 004°17'0 0.0
2014-Oct-11 00:31N 51°54' E 004°17'0 0.0
2014-Oct-10 23:22N 51°54' E 004°17'0 0.0
2014-Oct-10 22:31N 51°54' E 004°17'0 0.0
2014-Oct-10 21:31N 51°54' E 004°17'0 0.0
2014-Oct-10 20:31N 51°54' E 004°17'0 0.0
2014-Oct-10 19:31N 51°54' E 004°17'0 0.0
2014-Oct-10 18:31N 51°54' E 004°17'0 0.0
2014-Oct-10 17:31N 51°54' E 004°17'0 0.0
2014-Oct-10 16:31N 51°54' E 004°17'0 0.0
2014-Oct-10 15:28N 51°54' E 004°17'0 0.0
2014-Oct-10 14:31N 51°54' E 004°17'0 0.0
2014-Oct-10 13:31N 51°54' E 004°17'0 0.0
2014-Oct-10 12:31N 51°54' E 004°17'0 0.0
2014-Oct-10 11:31N 51°54' E 004°17'0 0.0
2014-Oct-10 10:31N 51°54' E 004°17'0 0.0
2014-Oct-10 09:31N 51°54' E 004°17'0 0.0
2014-Oct-10 08:31N 51°54' E 004°17'0 0.0
2014-Oct-10 07:31N 51°54' E 004°17'0 0.0
2014-Oct-10 06:31N 51°54' E 004°17'0 0.0
2014-Oct-10 05:31N 51°54' E 004°17'0 0.0
2014-Oct-10 04:31N 51°54' E 004°17'0 0.0
2014-Oct-10 03:31N 51°54' E 004°17'0 0.0
2014-Oct-10 02:31N 51°54' E 004°17'0 0.0
2014-Oct-10 01:31N 51°54' E 004°17'0 0.0
2014-Oct-10 00:32N 51°54' E 004°17'0 0.0
2014-Oct-09 23:32N 51°54' E 004°17'0 0.0
2014-Oct-09 22:32N 51°54' E 004°17'0 0.0
2014-Oct-09 21:32N 51°54' E 004°17'0 0.0
2014-Oct-09 20:32N 51°54' E 004°17'0 0.0
2014-Oct-09 19:32N 51°54' E 004°17'0 0.0
2014-Oct-09 18:32N 51°54' E 004°17'0 0.0
2014-Oct-09 17:32N 51°54' E 004°17'0 0.0
2014-Oct-09 16:32N 51°54' E 004°17'0 0.0
2014-Oct-09 15:33N 51°54' E 004°17'0 0.0
2014-Oct-09 14:32N 51°54' E 004°17'0 0.0
2014-Oct-09 13:32N 51°54' E 004°17'0 0.0
2014-Oct-09 12:32N 51°54' E 004°17'0 0.0
2014-Oct-09 11:32N 51°54' E 004°17'0 0.0
2014-Oct-09 10:32N 51°54' E 004°17'0 0.0
2014-Oct-09 09:31N 51°54' E 004°17'0 0.0
2014-Oct-09 08:31N 51°54' E 004°17'0 0.0
2014-Oct-09 07:31N 51°54' E 004°17'0 0.0
2014-Oct-09 06:31N 51°54' E 004°17'0 0.0
2014-Oct-09 05:31N 51°54' E 004°17'0 0.0
2014-Oct-09 04:31N 51°54' E 004°17'0 0.0
2014-Oct-09 03:28N 51°54' E 004°17'0 0.0
2014-Oct-09 02:31N 51°54' E 004°17'0 0.0
2014-Oct-09 01:28N 51°54' E 004°17'0 0.0
2014-Oct-09 00:31N 51°54' E 004°17'0 0.0
2014-Oct-08 23:31N 51°54' E 004°17'0 0.0
2014-Oct-08 22:31N 51°54' E 004°17'0 0.0
2014-Oct-08 21:28N 51°54' E 004°17'0 0.0
2014-Oct-08 20:31N 51°54' E 004°17'0 0.0
2014-Oct-08 19:31N 51°54' E 004°17'0 0.0
2014-Oct-08 18:31N 51°54' E 004°17'0 0.0
2014-Oct-08 17:28N 51°54' E 004°17'0 0.0
2014-Oct-08 16:31N 51°54' E 004°17'0 0.0
2014-Oct-08 15:31N 51°54' E 004°17'0 0.0
2014-Oct-08 14:31N 51°54' E 004°17'0 0.0
2014-Oct-08 13:31N 51°54' E 004°17'0 0.0
2014-Oct-08 12:31N 51°54' E 004°17'0 0.0
2014-Oct-08 11:31N 51°54' E 004°17'0 0.0
2014-Oct-08 10:31N 51°54' E 004°17'0 0.0
2014-Oct-08 09:31N 51°54' E 004°17'0 0.0
2014-Oct-08 08:28N 51°54' E 004°17'0 0.0
2014-Oct-08 07:31N 51°54' E 004°17'0 0.0
2014-Oct-08 06:30N 51°54' E 004°17'0 0.0
2014-Oct-08 05:33N 51°54' E 004°17'0 0.0
2014-Oct-08 04:33N 51°54' E 004°17'0 0.0
2014-Oct-08 03:33N 51°54' E 004°17'0 0.0
2014-Oct-08 02:33N 51°54' E 004°17'0 0.0
2014-Oct-08 01:33N 51°54' E 004°17'0 0.0
2014-Oct-08 00:34N 51°54' E 004°17'0 0.0
2014-Oct-07 23:32N 51°54' E 004°17'0 0.0
2014-Oct-07 22:32N 51°54' E 004°17'0 0.0
2014-Oct-07 21:32N 51°54' E 004°17'0 0.0
2014-Oct-07 20:32N 51°54' E 004°17'0 0.0
2014-Oct-07 19:32N 51°54' E 004°17'0 0.0
2014-Oct-07 18:32N 51°54' E 004°17'0 0.0
2014-Oct-07 17:32N 51°54' E 004°17'0 0.0
2014-Oct-07 16:29N 51°54' E 004°17'0 0.0
2014-Oct-07 15:32N 51°54' E 004°17'0 0.0
2014-Oct-07 14:32N 51°54' E 004°17'0 0.0
2014-Oct-07 13:32N 51°54' E 004°17'0 0.0
2014-Oct-07 12:32N 51°54' E 004°17'0 0.0
2014-Oct-07 11:32N 51°54' E 004°17'0 0.0
2014-Oct-07 10:32N 51°54' E 004°17'0 0.0
2014-Oct-07 09:32N 51°54' E 004°17'0 0.0
2014-Oct-07 08:29N 51°54' E 004°17'0 0.0
2014-Oct-07 07:32N 51°54' E 004°17'0 0.0
2014-Oct-07 06:32N 51°54' E 004°17'0 0.0
2014-Oct-07 05:32N 51°54' E 004°17'0 0.0
2014-Oct-07 04:32N 51°54' E 004°17'0 0.0
2014-Oct-07 03:32N 51°54' E 004°17'0 0.0
2014-Oct-07 02:32N 51°54' E 004°17'0 0.0
2014-Oct-07 01:32N 51°54' E 004°17'0 0.0
2014-Oct-07 00:29N 51°54' E 004°17'0 0.0
2014-Oct-06 23:32N 51°54' E 004°17'0 0.0
2014-Oct-06 22:32N 51°54' E 004°17'0 0.0
2014-Oct-06 21:32N 51°54' E 004°17'0 0.0
2014-Oct-06 20:32N 51°54' E 004°17'0 0.0
2014-Oct-06 19:32N 51°54' E 004°17'0 0.0
2014-Oct-06 16:32N 51°54' E 004°17'0 0.0
2014-Oct-06 15:32N 51°54' E 004°17'0 0.0
2014-Oct-06 14:32N 51°54' E 004°17'0 0.0
2014-Oct-06 13:32N 51°54' E 004°17'0 0.0
2014-Oct-06 12:26N 51°54' E 004°17'0 0.0
2014-Oct-06 11:32N 51°54' E 004°17'0 0.0
2014-Oct-06 10:32N 51°54' E 004°17'0 0.0
2014-Oct-06 09:31N 51°54' E 004°17'  

Dump ship's entire track history